sensor_id;sensor_type;location;lat;lon;timestamp;P1;durP1;ratioP1;P2;durP2;ratioP2
3757;SDS011;1894;51.038;13.692;2023-11-19T00:01:50;9.47;;;6.57;;
3757;SDS011;1894;51.038;13.692;2023-11-19T00:04:17;9.10;;;7.17;;
3757;SDS011;1894;51.038;13.692;2023-11-19T00:06:44;9.10;;;7.00;;
3757;SDS011;1894;51.038;13.692;2023-11-19T00:09:11;9.07;;;7.10;;
3757;SDS011;1894;51.038;13.692;2023-11-19T00:11:39;10.30;;;7.23;;
3757;SDS011;1894;51.038;13.692;2023-11-19T00:14:06;8.97;;;6.90;;
3757;SDS011;1894;51.038;13.692;2023-11-19T00:16:35;12.10;;;7.83;;
3757;SDS011;1894;51.038;13.692;2023-11-19T00:19:02;9.77;;;7.27;;
3757;SDS011;1894;51.038;13.692;2023-11-19T00:21:30;9.87;;;7.30;;
3757;SDS011;1894;51.038;13.692;2023-11-19T00:23:59;9.57;;;7.60;;
3757;SDS011;1894;51.038;13.692;2023-11-19T00:26:26;10.17;;;8.90;;
3757;SDS011;1894;51.038;13.692;2023-11-19T00:28:54;10.93;;;8.50;;
3757;SDS011;1894;51.038;13.692;2023-11-19T00:31:22;10.27;;;8.57;;
3757;SDS011;1894;51.038;13.692;2023-11-19T00:33:49;11.47;;;8.40;;
3757;SDS011;1894;51.038;13.692;2023-11-19T00:36:17;9.77;;;7.73;;
3757;SDS011;1894;51.038;13.692;2023-11-19T00:38:44;9.83;;;8.70;;
3757;SDS011;1894;51.038;13.692;2023-11-19T00:41:11;12.13;;;8.67;;
3757;SDS011;1894;51.038;13.692;2023-11-19T00:43:38;9.63;;;8.00;;
3757;SDS011;1894;51.038;13.692;2023-11-19T00:46:07;12.07;;;9.40;;
3757;SDS011;1894;51.038;13.692;2023-11-19T00:48:34;10.43;;;9.00;;
3757;SDS011;1894;51.038;13.692;2023-11-19T00:51:02;12.13;;;9.20;;
3757;SDS011;1894;51.038;13.692;2023-11-19T00:53:30;13.53;;;9.77;;
3757;SDS011;1894;51.038;13.692;2023-11-19T00:55:58;15.07;;;10.67;;
3757;SDS011;1894;51.038;13.692;2023-11-19T00:58:26;15.27;;;10.37;;
3757;SDS011;1894;51.038;13.692;2023-11-19T01:00:53;11.77;;;9.50;;
3757;SDS011;1894;51.038;13.692;2023-11-19T01:03:20;14.00;;;9.80;;
3757;SDS011;1894;51.038;13.692;2023-11-19T01:05:48;10.63;;;8.60;;
3757;SDS011;1894;51.038;13.692;2023-11-19T01:08:15;11.73;;;9.60;;
3757;SDS011;1894;51.038;13.692;2023-11-19T01:10:42;13.90;;;10.27;;
3757;SDS011;1894;51.038;13.692;2023-11-19T01:13:10;10.73;;;8.60;;
3757;SDS011;1894;51.038;13.692;2023-11-19T01:15:37;15.70;;;10.73;;
3757;SDS011;1894;51.038;13.692;2023-11-19T01:18:05;12.47;;;9.00;;
3757;SDS011;1894;51.038;13.692;2023-11-19T01:20:34;9.80;;;8.60;;
3757;SDS011;1894;51.038;13.692;2023-11-19T01:23:01;17.90;;;11.33;;
3757;SDS011;1894;51.038;13.692;2023-11-19T01:25:28;9.70;;;7.77;;
3757;SDS011;1894;51.038;13.692;2023-11-19T01:27:56;12.30;;;8.10;;
3757;SDS011;1894;51.038;13.692;2023-11-19T01:30:25;9.87;;;8.10;;
3757;SDS011;1894;51.038;13.692;2023-11-19T01:32:53;11.13;;;8.00;;
3757;SDS011;1894;51.038;13.692;2023-11-19T01:35:20;12.57;;;8.43;;
3757;SDS011;1894;51.038;13.692;2023-11-19T01:37:52;10.20;;;7.67;;
3757;SDS011;1894;51.038;13.692;2023-11-19T01:40:20;8.87;;;7.47;;
3757;SDS011;1894;51.038;13.692;2023-11-19T01:42:47;10.27;;;7.73;;
3757;SDS011;1894;51.038;13.692;2023-11-19T01:45:21;10.13;;;7.90;;
3757;SDS011;1894;51.038;13.692;2023-11-19T01:47:55;11.90;;;7.53;;
3757;SDS011;1894;51.038;13.692;2023-11-19T01:50:23;9.27;;;8.07;;
3757;SDS011;1894;51.038;13.692;2023-11-19T01:52:52;9.23;;;7.67;;
3757;SDS011;1894;51.038;13.692;2023-11-19T01:55:20;7.90;;;6.30;;
3757;SDS011;1894;51.038;13.692;2023-11-19T01:57:48;8.97;;;7.10;;
3757;SDS011;1894;51.038;13.692;2023-11-19T02:00:18;9.27;;;6.33;;
3757;SDS011;1894;51.038;13.692;2023-11-19T02:02:46;9.47;;;6.80;;
3757;SDS011;1894;51.038;13.692;2023-11-19T02:05:14;9.17;;;7.37;;
3757;SDS011;1894;51.038;13.692;2023-11-19T02:07:42;6.77;;;5.80;;
3757;SDS011;1894;51.038;13.692;2023-11-19T02:10:10;9.43;;;7.10;;
3757;SDS011;1894;51.038;13.692;2023-11-19T02:12:41;9.53;;;5.77;;
3757;SDS011;1894;51.038;13.692;2023-11-19T02:15:11;7.50;;;5.77;;
3757;SDS011;1894;51.038;13.692;2023-11-19T02:17:38;7.83;;;5.50;;
3757;SDS011;1894;51.038;13.692;2023-11-19T02:20:06;5.33;;;4.83;;
3757;SDS011;1894;51.038;13.692;2023-11-19T02:22:36;5.90;;;4.73;;
3757;SDS011;1894;51.038;13.692;2023-11-19T02:25:04;5.37;;;4.83;;
3757;SDS011;1894;51.038;13.692;2023-11-19T02:30:23;5.23;;;3.60;;
3757;SDS011;1894;51.038;13.692;2023-11-19T02:32:57;6.37;;;5.20;;
3757;SDS011;1894;51.038;13.692;2023-11-19T02:35:28;4.27;;;3.87;;
3757;SDS011;1894;51.038;13.692;2023-11-19T02:37:58;4.20;;;3.80;;
3757;SDS011;1894;51.038;13.692;2023-11-19T02:40:27;4.40;;;3.40;;
3757;SDS011;1894;51.038;13.692;2023-11-19T02:42:54;2.80;;;2.37;;
3757;SDS011;1894;51.038;13.692;2023-11-19T02:45:23;3.27;;;2.73;;
3757;SDS011;1894;51.038;13.692;2023-11-19T02:47:52;2.63;;;2.20;;
3757;SDS011;1894;51.038;13.692;2023-11-19T02:50:21;2.53;;;2.33;;
3757;SDS011;1894;51.038;13.692;2023-11-19T02:52:55;3.23;;;2.20;;
3757;SDS011;1894;51.038;13.692;2023-11-19T02:55:23;2.40;;;2.20;;
3757;SDS011;1894;51.038;13.692;2023-11-19T02:57:51;2.30;;;1.93;;
3757;SDS011;1894;51.038;13.692;2023-11-19T03:00:21;2.40;;;1.80;;
3757;SDS011;1894;51.038;13.692;2023-11-19T03:03:02;1.40;;;1.30;;
3757;SDS011;1894;51.038;13.692;2023-11-19T03:05:45;2.00;;;1.77;;
3757;SDS011;1894;51.038;13.692;2023-11-19T03:08:14;1.20;;;1.10;;
3757;SDS011;1894;51.038;13.692;2023-11-19T03:10:45;1.90;;;1.30;;
3757;SDS011;1894;51.038;13.692;2023-11-19T03:13:13;1.50;;;1.40;;
3757;SDS011;1894;51.038;13.692;2023-11-19T03:15:41;2.00;;;1.80;;
3757;SDS011;1894;51.038;13.692;2023-11-19T03:18:08;1.40;;;1.30;;
3757;SDS011;1894;51.038;13.692;2023-11-19T03:20:35;1.43;;;1.33;;
3757;SDS011;1894;51.038;13.692;2023-11-19T03:23:03;1.73;;;1.63;;
3757;SDS011;1894;51.038;13.692;2023-11-19T03:25:30;2.77;;;1.77;;
3757;SDS011;1894;51.038;13.692;2023-11-19T03:28:00;1.90;;;1.67;;
3757;SDS011;1894;51.038;13.692;2023-11-19T03:30:30;2.40;;;1.80;;
3757;SDS011;1894;51.038;13.692;2023-11-19T03:33:00;3.93;;;1.60;;
3757;SDS011;1894;51.038;13.692;2023-11-19T03:35:28;1.47;;;1.30;;
3757;SDS011;1894;51.038;13.692;2023-11-19T03:37:56;6.70;;;1.40;;
3757;SDS011;1894;51.038;13.692;2023-11-19T03:40:24;2.03;;;1.40;;
3757;SDS011;1894;51.038;13.692;2023-11-19T03:42:52;1.60;;;1.50;;
3757;SDS011;1894;51.038;13.692;2023-11-19T03:45:19;2.20;;;1.83;;
3757;SDS011;1894;51.038;13.692;2023-11-19T03:47:47;1.80;;;1.70;;
3757;SDS011;1894;51.038;13.692;2023-11-19T03:50:16;2.37;;;1.60;;
3757;SDS011;1894;51.038;13.692;2023-11-19T03:52:46;1.80;;;1.70;;
3757;SDS011;1894;51.038;13.692;2023-11-19T03:55:14;1.97;;;1.60;;
3757;SDS011;1894;51.038;13.692;2023-11-19T03:57:42;1.83;;;1.40;;
3757;SDS011;1894;51.038;13.692;2023-11-19T04:00:09;2.40;;;1.80;;
3757;SDS011;1894;51.038;13.692;2023-11-19T04:02:41;1.20;;;1.10;;
3757;SDS011;1894;51.038;13.692;2023-11-19T04:05:08;1.53;;;1.43;;
3757;SDS011;1894;51.038;13.692;2023-11-19T04:07:36;1.73;;;1.23;;
3757;SDS011;1894;51.038;13.692;2023-11-19T04:10:04;1.40;;;1.07;;
3757;SDS011;1894;51.038;13.692;2023-11-19T04:12:31;1.67;;;1.10;;
3757;SDS011;1894;51.038;13.692;2023-11-19T04:14:59;1.73;;;1.27;;
3757;SDS011;1894;51.038;13.692;2023-11-19T04:17:27;1.40;;;1.27;;
3757;SDS011;1894;51.038;13.692;2023-11-19T04:19:55;1.60;;;1.50;;
3757;SDS011;1894;51.038;13.692;2023-11-19T04:22:22;1.50;;;1.40;;
3757;SDS011;1894;51.038;13.692;2023-11-19T04:24:50;1.57;;;1.47;;
3757;SDS011;1894;51.038;13.692;2023-11-19T04:27:17;1.80;;;1.70;;
3757;SDS011;1894;51.038;13.692;2023-11-19T04:29:45;2.80;;;2.40;;
3757;SDS011;1894;51.038;13.692;2023-11-19T04:32:14;2.30;;;2.10;;
3757;SDS011;1894;51.038;13.692;2023-11-19T04:34:41;2.63;;;1.70;;
3757;SDS011;1894;51.038;13.692;2023-11-19T04:37:08;3.67;;;2.07;;
3757;SDS011;1894;51.038;13.692;2023-11-19T04:39:39;3.00;;;2.37;;
3757;SDS011;1894;51.038;13.692;2023-11-19T04:42:07;3.07;;;2.10;;
3757;SDS011;1894;51.038;13.692;2023-11-19T04:44:34;2.50;;;2.30;;
3757;SDS011;1894;51.038;13.692;2023-11-19T04:47:01;1.87;;;1.73;;
3757;SDS011;1894;51.038;13.692;2023-11-19T04:49:30;5.47;;;3.07;;
3757;SDS011;1894;51.038;13.692;2023-11-19T04:51:57;3.33;;;2.47;;
3757;SDS011;1894;51.038;13.692;2023-11-19T04:54:25;13.10;;;3.30;;
3757;SDS011;1894;51.038;13.692;2023-11-19T04:56:52;4.50;;;3.33;;
3757;SDS011;1894;51.038;13.692;2023-11-19T04:59:19;6.67;;;3.30;;
3757;SDS011;1894;51.038;13.692;2023-11-19T05:01:47;3.73;;;3.20;;
3757;SDS011;1894;51.038;13.692;2023-11-19T05:04:17;4.53;;;3.60;;
3757;SDS011;1894;51.038;13.692;2023-11-19T05:06:45;6.30;;;3.13;;
3757;SDS011;1894;51.038;13.692;2023-11-19T05:09:12;4.50;;;2.90;;
3757;SDS011;1894;51.038;13.692;2023-11-19T05:11:40;5.60;;;3.30;;
3757;SDS011;1894;51.038;13.692;2023-11-19T05:14:10;4.80;;;3.73;;
3757;SDS011;1894;51.038;13.692;2023-11-19T05:16:39;5.00;;;3.33;;
3757;SDS011;1894;51.038;13.692;2023-11-19T05:19:07;3.77;;;3.10;;
3757;SDS011;1894;51.038;13.692;2023-11-19T05:21:35;4.97;;;3.93;;
3757;SDS011;1894;51.038;13.692;2023-11-19T05:24:02;3.53;;;2.93;;
3757;SDS011;1894;51.038;13.692;2023-11-19T05:26:32;3.67;;;3.20;;
3757;SDS011;1894;51.038;13.692;2023-11-19T05:28:59;6.27;;;2.70;;
3757;SDS011;1894;51.038;13.692;2023-11-19T05:31:26;7.63;;;4.63;;
3757;SDS011;1894;51.038;13.692;2023-11-19T05:33:54;4.60;;;3.77;;
3757;SDS011;1894;51.038;13.692;2023-11-19T05:36:21;3.43;;;3.13;;
3757;SDS011;1894;51.038;13.692;2023-11-19T05:38:48;5.13;;;4.20;;
3757;SDS011;1894;51.038;13.692;2023-11-19T05:41:15;5.90;;;4.27;;
3757;SDS011;1894;51.038;13.692;2023-11-19T05:43:42;4.97;;;3.00;;
3757;SDS011;1894;51.038;13.692;2023-11-19T05:46:09;4.50;;;4.10;;
3757;SDS011;1894;51.038;13.692;2023-11-19T05:48:39;4.37;;;3.50;;
3757;SDS011;1894;51.038;13.692;2023-11-19T05:51:07;3.60;;;3.03;;
3757;SDS011;1894;51.038;13.692;2023-11-19T05:53:34;3.70;;;3.27;;
3757;SDS011;1894;51.038;13.692;2023-11-19T05:56:01;4.17;;;3.30;;
3757;SDS011;1894;51.038;13.692;2023-11-19T05:58:30;3.87;;;3.30;;
3757;SDS011;1894;51.038;13.692;2023-11-19T06:00:59;4.20;;;3.80;;
3757;SDS011;1894;51.038;13.692;2023-11-19T06:03:27;3.80;;;3.50;;
3757;SDS011;1894;51.038;13.692;2023-11-19T06:05:55;3.30;;;3.10;;
3757;SDS011;1894;51.038;13.692;2023-11-19T06:08:22;4.27;;;3.63;;
3757;SDS011;1894;51.038;13.692;2023-11-19T06:10:49;6.13;;;4.40;;
3757;SDS011;1894;51.038;13.692;2023-11-19T06:13:17;3.63;;;3.33;;
3757;SDS011;1894;51.038;13.692;2023-11-19T06:15:48;4.70;;;4.30;;
3757;SDS011;1894;51.038;13.692;2023-11-19T06:18:17;5.50;;;4.13;;
3757;SDS011;1894;51.038;13.692;2023-11-19T06:20:47;5.13;;;4.63;;
3757;SDS011;1894;51.038;13.692;2023-11-19T06:23:14;5.27;;;4.50;;
3757;SDS011;1894;51.038;13.692;2023-11-19T06:25:41;11.70;;;4.73;;
3757;SDS011;1894;51.038;13.692;2023-11-19T06:28:09;5.80;;;5.27;;
3757;SDS011;1894;51.038;13.692;2023-11-19T06:30:36;5.50;;;4.30;;
3757;SDS011;1894;51.038;13.692;2023-11-19T06:33:03;6.27;;;5.57;;
3757;SDS011;1894;51.038;13.692;2023-11-19T06:35:31;7.43;;;5.60;;
3757;SDS011;1894;51.038;13.692;2023-11-19T06:38:03;6.27;;;5.70;;
3757;SDS011;1894;51.038;13.692;2023-11-19T06:40:33;5.93;;;5.37;;
3757;SDS011;1894;51.038;13.692;2023-11-19T06:43:04;7.33;;;6.20;;
3757;SDS011;1894;51.038;13.692;2023-11-19T06:45:35;7.87;;;6.07;;
3757;SDS011;1894;51.038;13.692;2023-11-19T06:48:03;6.20;;;4.80;;
3757;SDS011;1894;51.038;13.692;2023-11-19T06:50:32;7.43;;;5.73;;
3757;SDS011;1894;51.038;13.692;2023-11-19T06:53:00;5.70;;;5.17;;
3757;SDS011;1894;51.038;13.692;2023-11-19T06:55:27;7.57;;;6.00;;
3757;SDS011;1894;51.038;13.692;2023-11-19T06:57:54;6.23;;;5.47;;
3757;SDS011;1894;51.038;13.692;2023-11-19T07:00:21;10.90;;;4.33;;
3757;SDS011;1894;51.038;13.692;2023-11-19T07:02:48;5.07;;;4.23;;
3757;SDS011;1894;51.038;13.692;2023-11-19T07:05:17;5.63;;;5.00;;
3757;SDS011;1894;51.038;13.692;2023-11-19T07:07:45;4.73;;;4.33;;
3757;SDS011;1894;51.038;13.692;2023-11-19T07:10:13;5.53;;;4.90;;
3757;SDS011;1894;51.038;13.692;2023-11-19T07:12:40;4.63;;;4.20;;
3757;SDS011;1894;51.038;13.692;2023-11-19T07:15:08;5.53;;;5.03;;
3757;SDS011;1894;51.038;13.692;2023-11-19T07:17:36;7.17;;;5.50;;
3757;SDS011;1894;51.038;13.692;2023-11-19T07:20:03;5.20;;;4.70;;
3757;SDS011;1894;51.038;13.692;2023-11-19T07:22:32;3.97;;;3.43;;
3757;SDS011;1894;51.038;13.692;2023-11-19T07:24:59;4.40;;;3.97;;
3757;SDS011;1894;51.038;13.692;2023-11-19T07:27:27;4.83;;;3.87;;
3757;SDS011;1894;51.038;13.692;2023-11-19T07:29:54;6.23;;;4.57;;
3757;SDS011;1894;51.038;13.692;2023-11-19T07:32:22;4.23;;;3.83;;
3757;SDS011;1894;51.038;13.692;2023-11-19T07:34:49;5.73;;;4.00;;
3757;SDS011;1894;51.038;13.692;2023-11-19T07:37:17;5.00;;;3.63;;
3757;SDS011;1894;51.038;13.692;2023-11-19T07:39:44;3.60;;;3.30;;
3757;SDS011;1894;51.038;13.692;2023-11-19T07:42:11;3.57;;;3.17;;
3757;SDS011;1894;51.038;13.692;2023-11-19T07:44:38;4.47;;;3.70;;
3757;SDS011;1894;51.038;13.692;2023-11-19T07:47:06;5.00;;;3.70;;
3757;SDS011;1894;51.038;13.692;2023-11-19T07:49:33;3.20;;;2.90;;
3757;SDS011;1894;51.038;13.692;2023-11-19T07:52:00;3.47;;;3.10;;
3757;SDS011;1894;51.038;13.692;2023-11-19T07:54:28;3.27;;;2.97;;
3757;SDS011;1894;51.038;13.692;2023-11-19T07:56:55;3.77;;;3.33;;
3757;SDS011;1894;51.038;13.692;2023-11-19T07:59:23;4.80;;;2.50;;
3757;SDS011;1894;51.038;13.692;2023-11-19T08:01:50;3.00;;;2.80;;
3757;SDS011;1894;51.038;13.692;2023-11-19T08:04:17;3.17;;;2.97;;
3757;SDS011;1894;51.038;13.692;2023-11-19T08:06:44;3.60;;;2.70;;
3757;SDS011;1894;51.038;13.692;2023-11-19T08:09:12;3.70;;;2.73;;
3757;SDS011;1894;51.038;13.692;2023-11-19T08:11:43;2.90;;;2.67;;
3757;SDS011;1894;51.038;13.692;2023-11-19T08:14:11;1.23;;;1.13;;
3757;SDS011;1894;51.038;13.692;2023-11-19T08:16:39;2.13;;;1.93;;
3757;SDS011;1894;51.038;13.692;2023-11-19T08:19:07;1.93;;;0.70;;
3757;SDS011;1894;51.038;13.692;2023-11-19T08:21:35;0.50;;;0.50;;
3757;SDS011;1894;51.038;13.692;2023-11-19T08:24:02;0.90;;;0.53;;
3757;SDS011;1894;51.038;13.692;2023-11-19T08:26:32;0.60;;;0.50;;
3757;SDS011;1894;51.038;13.692;2023-11-19T08:29:09;2.83;;;0.60;;
3757;SDS011;1894;51.038;13.692;2023-11-19T08:31:36;0.70;;;0.40;;
3757;SDS011;1894;51.038;13.692;2023-11-19T08:34:03;2.40;;;0.50;;
3757;SDS011;1894;51.038;13.692;2023-11-19T08:36:30;0.60;;;0.50;;
3757;SDS011;1894;51.038;13.692;2023-11-19T08:38:58;1.37;;;0.63;;
3757;SDS011;1894;51.038;13.692;2023-11-19T08:41:25;1.43;;;0.50;;
3757;SDS011;1894;51.038;13.692;2023-11-19T08:43:53;2.80;;;1.77;;
3757;SDS011;1894;51.038;13.692;2023-11-19T08:46:20;0.60;;;0.53;;
3757;SDS011;1894;51.038;13.692;2023-11-19T08:48:47;0.90;;;0.67;;
3757;SDS011;1894;51.038;13.692;2023-11-19T08:51:14;1.20;;;0.70;;
3757;SDS011;1894;51.038;13.692;2023-11-19T08:53:42;1.07;;;0.50;;
3757;SDS011;1894;51.038;13.692;2023-11-19T08:56:09;3.00;;;0.57;;
3757;SDS011;1894;51.038;13.692;2023-11-19T08:58:36;4.70;;;0.70;;
3757;SDS011;1894;51.038;13.692;2023-11-19T09:01:03;1.37;;;0.60;;
3757;SDS011;1894;51.038;13.692;2023-11-19T09:03:32;2.30;;;0.67;;
3757;SDS011;1894;51.038;13.692;2023-11-19T09:06:00;2.40;;;1.03;;
3757;SDS011;1894;51.038;13.692;2023-11-19T09:08:28;3.47;;;0.63;;
3757;SDS011;1894;51.038;13.692;2023-11-19T09:10:58;1.00;;;0.90;;
3757;SDS011;1894;51.038;13.692;2023-11-19T09:13:25;0.60;;;0.60;;
3757;SDS011;1894;51.038;13.692;2023-11-19T09:15:52;1.77;;;0.60;;
3757;SDS011;1894;51.038;13.692;2023-11-19T09:18:19;1.13;;;0.60;;
3757;SDS011;1894;51.038;13.692;2023-11-19T09:20:46;1.60;;;0.60;;
3757;SDS011;1894;51.038;13.692;2023-11-19T09:23:14;1.13;;;0.60;;
3757;SDS011;1894;51.038;13.692;2023-11-19T09:25:41;2.80;;;0.90;;
3757;SDS011;1894;51.038;13.692;2023-11-19T09:28:11;4.10;;;0.80;;
3757;SDS011;1894;51.038;13.692;2023-11-19T09:30:40;3.07;;;0.60;;
3757;SDS011;1894;51.038;13.692;2023-11-19T09:33:08;3.13;;;0.73;;
3757;SDS011;1894;51.038;13.692;2023-11-19T09:35:35;4.60;;;0.80;;
3757;SDS011;1894;51.038;13.692;2023-11-19T09:38:02;1.43;;;0.70;;
3757;SDS011;1894;51.038;13.692;2023-11-19T09:40:31;2.70;;;0.80;;
3757;SDS011;1894;51.038;13.692;2023-11-19T09:42:58;2.50;;;0.97;;
3757;SDS011;1894;51.038;13.692;2023-11-19T09:45:27;2.70;;;0.67;;
3757;SDS011;1894;51.038;13.692;2023-11-19T09:47:55;3.53;;;1.23;;
3757;SDS011;1894;51.038;13.692;2023-11-19T09:50:26;1.73;;;0.87;;
3757;SDS011;1894;51.038;13.692;2023-11-19T09:52:54;1.90;;;0.87;;
3757;SDS011;1894;51.038;13.692;2023-11-19T09:55:21;2.20;;;0.70;;
3757;SDS011;1894;51.038;13.692;2023-11-19T09:57:48;3.50;;;0.83;;
3757;SDS011;1894;51.038;13.692;2023-11-19T10:00:17;3.37;;;0.80;;
3757;SDS011;1894;51.038;13.692;2023-11-19T10:02:47;1.90;;;0.60;;
3757;SDS011;1894;51.038;13.692;2023-11-19T10:05:16;2.20;;;0.70;;
3757;SDS011;1894;51.038;13.692;2023-11-19T10:07:47;3.43;;;0.80;;
3757;SDS011;1894;51.038;13.692;2023-11-19T10:10:16;4.40;;;0.77;;
3757;SDS011;1894;51.038;13.692;2023-11-19T10:12:46;6.87;;;1.13;;
3757;SDS011;1894;51.038;13.692;2023-11-19T10:15:20;3.27;;;1.00;;
3757;SDS011;1894;51.038;13.692;2023-11-19T10:17:49;2.50;;;0.70;;
3757;SDS011;1894;51.038;13.692;2023-11-19T10:20:24;3.63;;;0.90;;
3757;SDS011;1894;51.038;13.692;2023-11-19T10:22:52;1.87;;;0.70;;
3757;SDS011;1894;51.038;13.692;2023-11-19T10:27:52;1.33;;;0.70;;
3757;SDS011;1894;51.038;13.692;2023-11-19T10:30:27;5.67;;;0.90;;
3757;SDS011;1894;51.038;13.692;2023-11-19T10:35:37;4.20;;;0.70;;
3757;SDS011;1894;51.038;13.692;2023-11-19T10:38:26;3.77;;;0.80;;
3757;SDS011;1894;51.038;13.692;2023-11-19T10:40:54;1.67;;;0.70;;
3757;SDS011;1894;51.038;13.692;2023-11-19T10:43:22;3.33;;;0.83;;
3757;SDS011;1894;51.038;13.692;2023-11-19T10:45:50;1.43;;;0.73;;
3757;SDS011;1894;51.038;13.692;2023-11-19T10:48:18;4.50;;;1.43;;
3757;SDS011;1894;51.038;13.692;2023-11-19T10:50:46;1.37;;;0.77;;
3757;SDS011;1894;51.038;13.692;2023-11-19T10:53:21;2.50;;;1.00;;
3757;SDS011;1894;51.038;13.692;2023-11-19T10:55:53;6.13;;;0.87;;
3757;SDS011;1894;51.038;13.692;2023-11-19T10:58:24;2.03;;;0.90;;
3757;SDS011;1894;51.038;13.692;2023-11-19T11:00:57;2.60;;;0.77;;
3757;SDS011;1894;51.038;13.692;2023-11-19T11:03:30;1.53;;;0.70;;
3757;SDS011;1894;51.038;13.692;2023-11-19T11:06:06;2.03;;;0.90;;
3757;SDS011;1894;51.038;13.692;2023-11-19T11:08:38;2.03;;;0.73;;
3757;SDS011;1894;51.038;13.692;2023-11-19T11:11:07;4.90;;;0.90;;
3757;SDS011;1894;51.038;13.692;2023-11-19T11:13:37;1.00;;;0.70;;
3757;SDS011;1894;51.038;13.692;2023-11-19T11:16:09;1.63;;;0.70;;
3757;SDS011;1894;51.038;13.692;2023-11-19T11:18:37;1.07;;;0.60;;
3757;SDS011;1894;51.038;13.692;2023-11-19T11:21:06;0.90;;;0.60;;
3757;SDS011;1894;51.038;13.692;2023-11-19T11:29:20;1.50;;;0.63;;
3757;SDS011;1894;51.038;13.692;2023-11-19T11:35:31;4.50;;;1.00;;
3757;SDS011;1894;51.038;13.692;2023-11-19T11:38:21;3.13;;;1.00;;
3757;SDS011;1894;51.038;13.692;2023-11-19T11:41:14;9.40;;;1.20;;
3757;SDS011;1894;51.038;13.692;2023-11-19T11:43:47;2.17;;;1.00;;
3757;SDS011;1894;51.038;13.692;2023-11-19T11:48:59;3.90;;;0.83;;
3757;SDS011;1894;51.038;13.692;2023-11-19T12:02:10;3.70;;;1.23;;
3757;SDS011;1894;51.038;13.692;2023-11-19T12:04:39;3.07;;;0.97;;
3757;SDS011;1894;51.038;13.692;2023-11-19T12:07:15;5.57;;;1.00;;
3757;SDS011;1894;51.038;13.692;2023-11-19T12:09:50;5.67;;;1.00;;
3757;SDS011;1894;51.038;13.692;2023-11-19T12:12:35;6.83;;;1.10;;
3757;SDS011;1894;51.038;13.692;2023-11-19T12:15:05;4.43;;;0.90;;
3757;SDS011;1894;51.038;13.692;2023-11-19T12:17:37;6.87;;;1.70;;
3757;SDS011;1894;51.038;13.692;2023-11-19T12:20:09;5.70;;;1.57;;
3757;SDS011;1894;51.038;13.692;2023-11-19T12:22:38;4.00;;;1.43;;
3757;SDS011;1894;51.038;13.692;2023-11-19T12:25:07;3.23;;;1.20;;
3757;SDS011;1894;51.038;13.692;2023-11-19T12:27:36;5.40;;;1.33;;
3757;SDS011;1894;51.038;13.692;2023-11-19T12:30:07;5.73;;;1.40;;
3757;SDS011;1894;51.038;13.692;2023-11-19T12:32:38;5.03;;;1.47;;
3757;SDS011;1894;51.038;13.692;2023-11-19T12:35:07;2.50;;;1.30;;
3757;SDS011;1894;51.038;13.692;2023-11-19T12:37:41;5.30;;;1.20;;
3757;SDS011;1894;51.038;13.692;2023-11-19T12:40:27;5.47;;;1.40;;
3757;SDS011;1894;51.038;13.692;2023-11-19T12:42:55;6.57;;;1.60;;
3757;SDS011;1894;51.038;13.692;2023-11-19T12:45:22;7.20;;;1.40;;
3757;SDS011;1894;51.038;13.692;2023-11-19T12:48:04;4.10;;;1.20;;
3757;SDS011;1894;51.038;13.692;2023-11-19T12:53:24;7.43;;;1.40;;
3757;SDS011;1894;51.038;13.692;2023-11-19T12:55:53;6.13;;;1.67;;
3757;SDS011;1894;51.038;13.692;2023-11-19T12:58:31;7.50;;;2.80;;
3757;SDS011;1894;51.038;13.692;2023-11-19T13:01:02;15.60;;;2.77;;
3757;SDS011;1894;51.038;13.692;2023-11-19T13:03:32;4.90;;;3.20;;
3757;SDS011;1894;51.038;13.692;2023-11-19T13:06:11;5.70;;;1.80;;
3757;SDS011;1894;51.038;13.692;2023-11-19T13:08:44;8.10;;;2.00;;
3757;SDS011;1894;51.038;13.692;2023-11-19T13:11:15;12.43;;;2.23;;
3757;SDS011;1894;51.038;13.692;2023-11-19T13:14:01;5.77;;;1.63;;
3757;SDS011;1894;51.038;13.692;2023-11-19T13:16:32;8.90;;;2.60;;
3757;SDS011;1894;51.038;13.692;2023-11-19T13:19:00;9.53;;;1.93;;
3757;SDS011;1894;51.038;13.692;2023-11-19T13:21:27;8.13;;;1.97;;
3757;SDS011;1894;51.038;13.692;2023-11-19T13:23:56;6.73;;;1.67;;
3757;SDS011;1894;51.038;13.692;2023-11-19T13:26:23;13.50;;;2.70;;
3757;SDS011;1894;51.038;13.692;2023-11-19T13:28:50;9.03;;;1.60;;
3757;SDS011;1894;51.038;13.692;2023-11-19T13:31:18;5.23;;;2.50;;
3757;SDS011;1894;51.038;13.692;2023-11-19T13:33:45;10.53;;;2.30;;
3757;SDS011;1894;51.038;13.692;2023-11-19T13:36:12;10.33;;;1.67;;
3757;SDS011;1894;51.038;13.692;2023-11-19T13:38:43;8.20;;;1.70;;
3757;SDS011;1894;51.038;13.692;2023-11-19T13:41:11;10.50;;;1.80;;
3757;SDS011;1894;51.038;13.692;2023-11-19T13:43:40;7.07;;;1.70;;
3757;SDS011;1894;51.038;13.692;2023-11-19T13:46:07;6.30;;;2.17;;
3757;SDS011;1894;51.038;13.692;2023-11-19T13:48:37;6.50;;;1.70;;
3757;SDS011;1894;51.038;13.692;2023-11-19T13:51:05;7.60;;;1.87;;
3757;SDS011;1894;51.038;13.692;2023-11-19T13:53:32;9.10;;;2.23;;
3757;SDS011;1894;51.038;13.692;2023-11-19T13:56:17;11.00;;;1.90;;
3757;SDS011;1894;51.038;13.692;2023-11-19T13:58:44;16.70;;;2.90;;
3757;SDS011;1894;51.038;13.692;2023-11-19T14:01:13;10.90;;;2.37;;
3757;SDS011;1894;51.038;13.692;2023-11-19T14:03:41;8.47;;;1.70;;
3757;SDS011;1894;51.038;13.692;2023-11-19T14:06:09;10.50;;;1.77;;
3757;SDS011;1894;51.038;13.692;2023-11-19T14:08:36;9.87;;;2.53;;
3757;SDS011;1894;51.038;13.692;2023-11-19T14:11:04;10.20;;;2.73;;
3757;SDS011;1894;51.038;13.692;2023-11-19T14:13:31;17.50;;;2.13;;
3757;SDS011;1894;51.038;13.692;2023-11-19T14:15:59;19.70;;;3.60;;
3757;SDS011;1894;51.038;13.692;2023-11-19T14:18:27;16.13;;;1.90;;
3757;SDS011;1894;51.038;13.692;2023-11-19T14:20:54;8.20;;;2.00;;
3757;SDS011;1894;51.038;13.692;2023-11-19T14:23:21;10.13;;;2.10;;
3757;SDS011;1894;51.038;13.692;2023-11-19T14:25:50;11.87;;;2.50;;
3757;SDS011;1894;51.038;13.692;2023-11-19T14:28:17;12.03;;;2.50;;
3757;SDS011;1894;51.038;13.692;2023-11-19T14:30:45;7.70;;;2.20;;
3757;SDS011;1894;51.038;13.692;2023-11-19T14:33:14;9.40;;;2.20;;
3757;SDS011;1894;51.038;13.692;2023-11-19T14:35:41;10.30;;;2.57;;
3757;SDS011;1894;51.038;13.692;2023-11-19T14:38:08;11.37;;;3.50;;
3757;SDS011;1894;51.038;13.692;2023-11-19T14:40:36;15.73;;;3.57;;
3757;SDS011;1894;51.038;13.692;2023-11-19T14:43:06;12.33;;;2.50;;
3757;SDS011;1894;51.038;13.692;2023-11-19T14:45:36;7.80;;;2.37;;
3757;SDS011;1894;51.038;13.692;2023-11-19T14:48:14;11.03;;;2.20;;
3757;SDS011;1894;51.038;13.692;2023-11-19T14:50:44;9.43;;;2.57;;
3757;SDS011;1894;51.038;13.692;2023-11-19T14:53:11;11.70;;;2.20;;
3757;SDS011;1894;51.038;13.692;2023-11-19T14:55:38;11.30;;;3.17;;
3757;SDS011;1894;51.038;13.692;2023-11-19T14:58:05;6.70;;;2.50;;
3757;SDS011;1894;51.038;13.692;2023-11-19T15:00:37;5.33;;;1.83;;
3757;SDS011;1894;51.038;13.692;2023-11-19T15:03:04;7.37;;;2.13;;
3757;SDS011;1894;51.038;13.692;2023-11-19T15:05:33;8.70;;;2.00;;
3757;SDS011;1894;51.038;13.692;2023-11-19T15:08:01;12.00;;;2.60;;
3757;SDS011;1894;51.038;13.692;2023-11-19T15:10:38;10.60;;;2.50;;
3757;SDS011;1894;51.038;13.692;2023-11-19T15:13:05;11.53;;;2.77;;
3757;SDS011;1894;51.038;13.692;2023-11-19T15:15:33;6.80;;;1.60;;
3757;SDS011;1894;51.038;13.692;2023-11-19T15:18:02;10.97;;;2.20;;
3757;SDS011;1894;51.038;13.692;2023-11-19T15:20:29;16.90;;;3.07;;
3757;SDS011;1894;51.038;13.692;2023-11-19T15:22:57;7.40;;;2.70;;
3757;SDS011;1894;51.038;13.692;2023-11-19T15:25:25;9.60;;;2.20;;
3757;SDS011;1894;51.038;13.692;2023-11-19T15:27:52;18.70;;;2.40;;
3757;SDS011;1894;51.038;13.692;2023-11-19T15:30:19;19.30;;;3.63;;
3757;SDS011;1894;51.038;13.692;2023-11-19T15:32:46;15.23;;;3.37;;
3757;SDS011;1894;51.038;13.692;2023-11-19T15:35:13;24.33;;;4.10;;
3757;SDS011;1894;51.038;13.692;2023-11-19T15:37:41;7.53;;;1.80;;
3757;SDS011;1894;51.038;13.692;2023-11-19T15:40:10;11.20;;;2.60;;
3757;SDS011;1894;51.038;13.692;2023-11-19T15:42:40;18.47;;;3.03;;